Weather History for KDYR - October, 2011

Change the Weather History Date:

Sunday, October 2, 2011

  Actual Average Record
Temperature  
Mean Temperature 54 °F -  
Max Temperature 69 °F 74 °F 89 °F (2006)
Min Temperature 39 °F 52 °F 39 °F (2003)
Degree Days  
Heating Degree Days 11    
Growing Degree Days 4 (Base 50)    
Moisture  
Dew Point 34 °F    
Average Humidity 56    
Maximum Humidity 81    
Minimum Humidity 23    
Precipitation  
Precipitation 0.00 in - - ()
Sea Level Pressure  
Sea Level Pressure 30.24 in    
Wind  
Wind Speed 2 mph (North)    
Max Wind Speed 14 mph    
Max Gust Speed 17 mph    
Visibility 10 miles    
Events      
Averages and records for this station are not official NWS values.
T = Trace of Precipitation, MM = Missing Value Source: NWS Daily Summary

Daily Weather History Graph

Daily Weather History Graph

Search for Another Location

Airport or City:

Trip Planner

Search our weather history database for the weather conditions in past years. The results will help you decide how hot, cold, wet, or windy it might be!

Date:

Astronomy

Oct. 02, 2011 Rise Set
Actual Time 6:53 AM CDT 6:40 PM CDT
Civil Twilight 6:27 AM CDT 7:05 PM CDT
Nautical Twilight 5:57 AM CDT 7:35 PM CDT
Astronomical Twilight 5:28 AM CDT 8:05 PM CDT
Moon 12:49 PM CDT (10/2) 10:49 PM CDT (10/2)
Length of Visible Light 12h 38m
Length of Day
11h 46m
Waxing Crescent, 35% of the Moon is Illuminated
Oct 2
Waxing Crescent
Oct 3
First Quarter
Oct 11
Full
Oct 19
Last Quarter
Oct 26
New

Hourly Weather History & Observations

Time (CDT) Temp. Dew Point Humidity Pressure Visibility Wind Dir Wind Speed Gust Speed Precip Events Conditions
12:15 AM 44.6 °F 37.4 °F 76% 30.24 in 10.0 mi Calm Calm - N/A   Clear
12:55 AM 44.6 °F 35.6 °F 71% 30.23 in 10.0 mi North - - N/A   Clear
1:15 AM 44.6 °F 37.4 °F 76% 30.23 in 10.0 mi Calm Calm - N/A   Clear
1:35 AM 44.6 °F 37.4 °F 76% 30.23 in 10.0 mi Calm Calm - N/A   Clear
1:55 AM 42.8 °F 35.6 °F 76% 30.23 in 10.0 mi Calm Calm - N/A   Clear
2:15 AM 44.6 °F 35.6 °F 71% 30.23 in 10.0 mi Calm Calm - N/A   Clear
2:35 AM 42.8 °F 35.6 °F 76% 30.23 in 10.0 mi Calm Calm - N/A   Clear
2:55 AM 42.8 °F 35.6 °F 76% 30.23 in 10.0 mi Calm Calm - N/A   Clear
3:15 AM 42.8 °F 35.6 °F 76% 30.23 in 10.0 mi Calm Calm - N/A   Clear
3:35 AM 42.8 °F 35.6 °F 76% 30.24 in 10.0 mi Calm Calm - N/A   Clear
3:55 AM 41.0 °F 35.6 °F 81% 30.24 in 10.0 mi Calm Calm - N/A   Clear
4:35 AM 41.0 °F 33.8 °F 76% 30.24 in 10.0 mi Calm Calm - N/A   Clear
4:55 AM 41.0 °F 35.6 °F 81% 30.24 in 10.0 mi Calm Calm - N/A   Clear
5:15 AM 42.8 °F 35.6 °F 76% 30.24 in 10.0 mi Calm Calm - N/A   Clear
5:35 AM 41.0 °F 35.6 °F 81% 30.25 in 10.0 mi Calm Calm - N/A   Clear
5:55 AM 41.0 °F 33.8 °F 76% 30.25 in 10.0 mi Calm Calm - N/A   Clear
6:15 AM 39.2 °F 33.8 °F 81% 30.26 in 10.0 mi Calm Calm - N/A   Clear
6:35 AM 39.2 °F 33.8 °F 81% 30.27 in 10.0 mi Calm Calm - N/A   Clear
6:55 AM 39.2 °F 33.8 °F 81% 30.27 in 10.0 mi Calm Calm - N/A   Clear
7:15 AM 41.0 °F 35.6 °F 81% 30.27 in 10.0 mi Calm Calm - N/A   Clear
7:35 AM 42.8 °F 35.6 °F 76% 30.28 in 10.0 mi Calm Calm - N/A   Clear
7:55 AM 46.4 °F 39.2 °F 76% 30.28 in 10.0 mi Calm Calm - N/A   Clear
8:15 AM 48.2 °F 39.2 °F 71% 30.29 in 10.0 mi Calm Calm - N/A   Clear
8:35 AM 51.8 °F 39.2 °F 62% 30.29 in 10.0 mi North 5.8 mph - N/A   Clear
8:55 AM 53.6 °F 39.2 °F 58% 30.29 in 10.0 mi North 5.8 mph - N/A   Clear
9:15 AM 55.4 °F 37.4 °F 51% 30.29 in 10.0 mi North 5.8 mph - N/A   Clear
9:35 AM 57.2 °F 33.8 °F 41% 30.29 in 10.0 mi North 6.9 mph - N/A   Clear
9:55 AM 57.2 °F 30.2 °F 36% 30.30 in 10.0 mi NNE 9.2 mph - N/A   Clear
10:15 AM 60.8 °F 32.0 °F 34% 30.30 in 10.0 mi NNE 10.4 mph - N/A   Clear
10:35 AM 60.8 °F 30.2 °F 31% 30.30 in 10.0 mi NNE 9.2 mph - N/A   Clear
10:55 AM 60.8 °F 30.2 °F 31% 30.30 in 10.0 mi North 11.5 mph - N/A   Clear
11:15 AM 62.6 °F 28.4 °F 27% 30.30 in 10.0 mi NNE 9.2 mph - N/A   Clear
11:35 AM 62.6 °F 28.4 °F 27% 30.29 in 10.0 mi NNE 8.1 mph - N/A   Clear
11:55 AM 64.4 °F 26.6 °F 24% 30.28 in 10.0 mi North 13.8 mph 17.3 mph N/A   Clear
12:15 PM 66.2 °F 26.6 °F 23% 30.28 in 10.0 mi North 8.1 mph - N/A   Clear
12:55 PM 66.2 °F 30.2 °F 26% 30.26 in 10.0 mi NW 8.1 mph - N/A   Clear
1:15 PM 66.2 °F 32.0 °F 28% 30.25 in 10.0 mi NW 4.6 mph - N/A   Clear
1:55 PM 66.2 °F 32.0 °F 28% 30.24 in 10.0 mi NNW 8.1 mph - N/A   Clear
2:15 PM 68.0 °F 32.0 °F 26% 30.23 in 10.0 mi NNW 5.8 mph - N/A   Clear
2:35 PM 68.0 °F 30.2 °F 24% 30.22 in 10.0 mi NNW 6.9 mph - N/A   Clear
2:55 PM 69.8 °F 33.8 °F 27% 30.22 in 10.0 mi North 5.8 mph - N/A   Clear
3:15 PM 69.8 °F 32.0 °F 25% 30.21 in 1.8 mi NNW 8.1 mph - N/A   Clear
3:35 PM 69.8 °F 32.0 °F 25% 30.21 in 10.0 mi North 6.9 mph - N/A   Clear
3:55 PM 68.0 °F 30.2 °F 24% 30.21 in 10.0 mi NNW 6.9 mph - N/A   Clear
4:35 PM 68.0 °F 30.2 °F 24% 30.20 in 10.0 mi NNW 6.9 mph - N/A   Clear
5:35 PM 66.2 °F 30.2 °F 26% 30.20 in 10.0 mi North 8.1 mph - N/A   Clear
5:55 PM 66.2 °F 32.0 °F 28% 30.20 in 10.0 mi North 6.9 mph - N/A   Clear
6:15 PM 64.4 °F 33.8 °F 32% 30.21 in 10.0 mi North 4.6 mph - N/A   Clear
6:55 PM 55.4 °F 35.6 °F 47% 30.20 in 10.0 mi Calm Calm - N/A   Clear
7:15 PM 55.4 °F 37.4 °F 51% 30.20 in 10.0 mi Calm Calm - N/A   Clear
7:35 PM 53.6 °F 37.4 °F 54% 30.20 in 10.0 mi Calm Calm - N/A   Clear
7:55 PM 53.6 °F 37.4 °F 54% 30.21 in 10.0 mi Calm Calm - N/A   Clear
8:15 PM 51.8 °F 35.6 °F 54% 30.21 in 10.0 mi Calm Calm - N/A   Clear
8:35 PM 51.8 °F 35.6 °F 54% 30.21 in 10.0 mi Calm Calm - N/A   Clear
8:55 PM 48.2 °F 35.6 °F 62% 30.21 in 10.0 mi Calm Calm - N/A   Clear
9:15 PM 48.2 °F 37.4 °F 66% 30.22 in 10.0 mi Calm Calm - N/A   Clear
9:35 PM 48.2 °F 37.4 °F 66% 30.22 in 10.0 mi Calm Calm - N/A   Clear
9:55 PM 46.4 °F 35.6 °F 66% 30.22 in 10.0 mi Calm Calm - N/A   Clear
10:15 PM 46.4 °F 37.4 °F 71% 30.22 in 10.0 mi Calm Calm - N/A   Clear
10:35 PM 46.4 °F 39.2 °F 76% 30.22 in 10.0 mi Calm Calm - N/A   Clear
10:55 PM 46.4 °F 37.4 °F 71% 30.22 in 10.0 mi Calm Calm - N/A   Clear
11:15 PM 46.4 °F 37.4 °F 71% 30.22 in 10.0 mi Calm Calm - N/A   Clear
11:35 PM 44.6 °F 37.4 °F 76% 30.22 in 10.0 mi Calm Calm - N/A   Clear
11:55 PM 44.6 °F 35.6 °F 71% 30.22 in 10.0 mi Calm Calm - N/A   Clear